sensor_id;sensor_type;location;lat;lon;timestamp;P1;durP1;ratioP1;P2;durP2;ratioP2
23175;SDS011;19910;42.652;23.332;2023-03-11T00:01:08;11.02;;;6.70;;
23175;SDS011;19910;42.652;23.332;2023-03-11T00:03:35;7.00;;;4.43;;
23175;SDS011;19910;42.652;23.332;2023-03-11T00:06:02;8.48;;;5.53;;
23175;SDS011;19910;42.652;23.332;2023-03-11T00:08:29;4.25;;;2.55;;
23175;SDS011;19910;42.652;23.332;2023-03-11T00:10:57;3.63;;;2.28;;
23175;SDS011;19910;42.652;23.332;2023-03-11T00:13:27;2.13;;;1.83;;
23175;SDS011;19910;42.652;23.332;2023-03-11T00:15:54;0.93;;;0.82;;
23175;SDS011;19910;42.652;23.332;2023-03-11T00:18:24;0.98;;;0.80;;
23175;SDS011;19910;42.652;23.332;2023-03-11T00:20:54;0.85;;;0.70;;
23175;SDS011;19910;42.652;23.332;2023-03-11T00:23:22;2.92;;;0.90;;
23175;SDS011;19910;42.652;23.332;2023-03-11T00:25:49;1.00;;;0.90;;
23175;SDS011;19910;42.652;23.332;2023-03-11T00:28:16;1.35;;;1.00;;
23175;SDS011;19910;42.652;23.332;2023-03-11T00:30:45;0.90;;;0.77;;
23175;SDS011;19910;42.652;23.332;2023-03-11T00:33:12;1.40;;;0.77;;
23175;SDS011;19910;42.652;23.332;2023-03-11T00:35:41;0.90;;;0.80;;
23175;SDS011;19910;42.652;23.332;2023-03-11T00:38:10;4.13;;;0.73;;
23175;SDS011;19910;42.652;23.332;2023-03-11T00:40:39;0.68;;;0.57;;
23175;SDS011;19910;42.652;23.332;2023-03-11T00:43:06;2.40;;;1.05;;
23175;SDS011;19910;42.652;23.332;2023-03-11T00:45:33;3.75;;;0.80;;
23175;SDS011;19910;42.652;23.332;2023-03-11T00:48:04;1.08;;;0.70;;
23175;SDS011;19910;42.652;23.332;2023-03-11T00:50:32;1.85;;;0.95;;
23175;SDS011;19910;42.652;23.332;2023-03-11T00:53:00;0.70;;;0.70;;
23175;SDS011;19910;42.652;23.332;2023-03-11T00:55:28;1.98;;;0.80;;
23175;SDS011;19910;42.652;23.332;2023-03-11T00:57:57;2.35;;;0.60;;
23175;SDS011;19910;42.652;23.332;2023-03-11T01:00:25;0.70;;;0.70;;
23175;SDS011;19910;42.652;23.332;2023-03-11T01:02:53;1.27;;;0.65;;
23175;SDS011;19910;42.652;23.332;2023-03-11T01:05:23;0.95;;;0.60;;
23175;SDS011;19910;42.652;23.332;2023-03-11T01:07:51;0.57;;;0.52;;
23175;SDS011;19910;42.652;23.332;2023-03-11T01:10:18;1.55;;;0.80;;
23175;SDS011;19910;42.652;23.332;2023-03-11T01:12:45;2.55;;;0.88;;
23175;SDS011;19910;42.652;23.332;2023-03-11T01:15:14;6.50;;;1.10;;
23175;SDS011;19910;42.652;23.332;2023-03-11T01:17:44;1.35;;;1.02;;
23175;SDS011;19910;42.652;23.332;2023-03-11T01:20:11;0.40;;;0.40;;
23175;SDS011;19910;42.652;23.332;2023-03-11T01:22:40;0.45;;;0.45;;
23175;SDS011;19910;42.652;23.332;2023-03-11T01:25:08;1.10;;;0.80;;
23175;SDS011;19910;42.652;23.332;2023-03-11T01:27:37;1.77;;;1.00;;
23175;SDS011;19910;42.652;23.332;2023-03-11T01:30:05;0.85;;;0.75;;
23175;SDS011;19910;42.652;23.332;2023-03-11T01:32:32;0.75;;;0.60;;
23175;SDS011;19910;42.652;23.332;2023-03-11T01:34:59;4.22;;;0.68;;
23175;SDS011;19910;42.652;23.332;2023-03-11T01:37:26;1.45;;;0.90;;
23175;SDS011;19910;42.652;23.332;2023-03-11T01:39:54;1.23;;;0.90;;
23175;SDS011;19910;42.652;23.332;2023-03-11T01:42:21;0.98;;;0.70;;
23175;SDS011;19910;42.652;23.332;2023-03-11T01:44:47;1.70;;;1.20;;
23175;SDS011;19910;42.652;23.332;2023-03-11T01:47:29;1.00;;;0.82;;
23175;SDS011;19910;42.652;23.332;2023-03-11T01:49:59;0.50;;;0.50;;
23175;SDS011;19910;42.652;23.332;2023-03-11T01:52:26;1.08;;;0.85;;
23175;SDS011;19910;42.652;23.332;2023-03-11T01:54:55;1.38;;;0.80;;
23175;SDS011;19910;42.652;23.332;2023-03-11T01:57:22;0.50;;;0.50;;
23175;SDS011;19910;42.652;23.332;2023-03-11T01:59:49;1.25;;;0.90;;
23175;SDS011;19910;42.652;23.332;2023-03-11T02:02:19;1.17;;;0.77;;
23175;SDS011;19910;42.652;23.332;2023-03-11T02:04:50;0.77;;;0.60;;
23175;SDS011;19910;42.652;23.332;2023-03-11T02:07:19;4.57;;;1.52;;
23175;SDS011;19910;42.652;23.332;2023-03-11T02:09:46;2.30;;;1.35;;
23175;SDS011;19910;42.652;23.332;2023-03-11T02:12:17;2.58;;;1.60;;
23175;SDS011;19910;42.652;23.332;2023-03-11T02:14:44;2.40;;;1.77;;
23175;SDS011;19910;42.652;23.332;2023-03-11T02:17:14;2.47;;;1.77;;
23175;SDS011;19910;42.652;23.332;2023-03-11T02:19:45;4.03;;;2.55;;
23175;SDS011;19910;42.652;23.332;2023-03-11T02:22:23;3.40;;;2.72;;
23175;SDS011;19910;42.652;23.332;2023-03-11T02:24:54;4.38;;;2.92;;
23175;SDS011;19910;42.652;23.332;2023-03-11T02:27:28;3.28;;;2.20;;
23175;SDS011;19910;42.652;23.332;2023-03-11T02:29:58;3.47;;;2.10;;
23175;SDS011;19910;42.652;23.332;2023-03-11T02:32:26;2.85;;;1.92;;
23175;SDS011;19910;42.652;23.332;2023-03-11T02:34:53;2.97;;;2.45;;
23175;SDS011;19910;42.652;23.332;2023-03-11T02:37:20;3.17;;;2.03;;
23175;SDS011;19910;42.652;23.332;2023-03-11T02:39:48;4.30;;;2.38;;
23175;SDS011;19910;42.652;23.332;2023-03-11T02:42:17;4.15;;;2.03;;
23175;SDS011;19910;42.652;23.332;2023-03-11T02:44:50;3.50;;;2.05;;
23175;SDS011;19910;42.652;23.332;2023-03-11T02:47:23;3.85;;;2.80;;
23175;SDS011;19910;42.652;23.332;2023-03-11T02:49:52;4.40;;;2.90;;
23175;SDS011;19910;42.652;23.332;2023-03-11T02:52:20;6.00;;;3.70;;
23175;SDS011;19910;42.652;23.332;2023-03-11T02:54:47;5.90;;;3.72;;
23175;SDS011;19910;42.652;23.332;2023-03-11T02:57:14;8.32;;;4.00;;
23175;SDS011;19910;42.652;23.332;2023-03-11T02:59:41;7.00;;;3.72;;
23175;SDS011;19910;42.652;23.332;2023-03-11T03:02:09;7.38;;;3.58;;
23175;SDS011;19910;42.652;23.332;2023-03-11T03:04:36;3.03;;;2.25;;
23175;SDS011;19910;42.652;23.332;2023-03-11T03:07:03;4.38;;;2.92;;
23175;SDS011;19910;42.652;23.332;2023-03-11T03:09:29;6.57;;;3.60;;
23175;SDS011;19910;42.652;23.332;2023-03-11T03:11:57;8.68;;;3.88;;
23175;SDS011;19910;42.652;23.332;2023-03-11T03:14:23;7.13;;;3.38;;
23175;SDS011;19910;42.652;23.332;2023-03-11T03:16:50;5.53;;;3.38;;
23175;SDS011;19910;42.652;23.332;2023-03-11T03:19:18;6.45;;;3.28;;
23175;SDS011;19910;42.652;23.332;2023-03-11T03:21:45;14.02;;;4.05;;
23175;SDS011;19910;42.652;23.332;2023-03-11T03:24:12;6.00;;;3.75;;
23175;SDS011;19910;42.652;23.332;2023-03-11T03:26:38;9.35;;;3.55;;
23175;SDS011;19910;42.652;23.332;2023-03-11T03:29:05;6.53;;;3.55;;
23175;SDS011;19910;42.652;23.332;2023-03-11T03:31:32;3.30;;;2.15;;
23175;SDS011;19910;42.652;23.332;2023-03-11T03:34:02;6.13;;;2.92;;
23175;SDS011;19910;42.652;23.332;2023-03-11T03:36:30;3.20;;;1.67;;
23175;SDS011;19910;42.652;23.332;2023-03-11T03:38:57;0.40;;;0.40;;
23175;SDS011;19910;42.652;23.332;2023-03-11T03:41:24;1.67;;;1.40;;
23175;SDS011;19910;42.652;23.332;2023-03-11T03:43:50;0.60;;;0.60;;
23175;SDS011;19910;42.652;23.332;2023-03-11T03:46:18;0.30;;;0.30;;
23175;SDS011;19910;42.652;23.332;2023-03-11T03:48:45;0.45;;;0.30;;
23175;SDS011;19910;42.652;23.332;2023-03-11T03:51:12;0.30;;;0.30;;
23175;SDS011;19910;42.652;23.332;2023-03-11T03:53:41;0.30;;;0.30;;
23175;SDS011;19910;42.652;23.332;2023-03-11T03:56:11;0.30;;;0.30;;
23175;SDS011;19910;42.652;23.332;2023-03-11T03:58:39;3.40;;;0.40;;
23175;SDS011;19910;42.652;23.332;2023-03-11T04:01:06;0.38;;;0.38;;
23175;SDS011;19910;42.652;23.332;2023-03-11T04:03:34;0.30;;;0.30;;
23175;SDS011;19910;42.652;23.332;2023-03-11T04:06:06;0.30;;;0.30;;
23175;SDS011;19910;42.652;23.332;2023-03-11T04:08:34;0.28;;;0.28;;
23175;SDS011;19910;42.652;23.332;2023-03-11T04:11:02;0.40;;;0.40;;
23175;SDS011;19910;42.652;23.332;2023-03-11T04:13:29;0.38;;;0.38;;
23175;SDS011;19910;42.652;23.332;2023-03-11T04:15:56;0.30;;;0.30;;
23175;SDS011;19910;42.652;23.332;2023-03-11T04:18:23;0.43;;;0.43;;
23175;SDS011;19910;42.652;23.332;2023-03-11T04:20:50;0.20;;;0.20;;
23175;SDS011;19910;42.652;23.332;2023-03-11T04:23:16;0.35;;;0.35;;
23175;SDS011;19910;42.652;23.332;2023-03-11T04:25:43;0.32;;;0.32;;
23175;SDS011;19910;42.652;23.332;2023-03-11T04:28:11;1.98;;;0.40;;
23175;SDS011;19910;42.652;23.332;2023-03-11T04:30:38;0.47;;;0.30;;
23175;SDS011;19910;42.652;23.332;2023-03-11T04:33:05;0.30;;;0.30;;
23175;SDS011;19910;42.652;23.332;2023-03-11T04:35:32;0.50;;;0.30;;
23175;SDS011;19910;42.652;23.332;2023-03-11T04:37:59;0.30;;;0.30;;
23175;SDS011;19910;42.652;23.332;2023-03-11T04:40:26;0.30;;;0.30;;
23175;SDS011;19910;42.652;23.332;2023-03-11T04:42:52;0.40;;;0.40;;
23175;SDS011;19910;42.652;23.332;2023-03-11T04:45:21;0.40;;;0.40;;
23175;SDS011;19910;42.652;23.332;2023-03-11T04:47:48;0.30;;;0.30;;
23175;SDS011;19910;42.652;23.332;2023-03-11T04:50:15;0.32;;;0.30;;
23175;SDS011;19910;42.652;23.332;2023-03-11T04:52:43;0.40;;;0.40;;
23175;SDS011;19910;42.652;23.332;2023-03-11T04:55:10;0.35;;;0.35;;
23175;SDS011;19910;42.652;23.332;2023-03-11T04:57:38;0.55;;;0.38;;
23175;SDS011;19910;42.652;23.332;2023-03-11T05:00:05;0.45;;;0.43;;
23175;SDS011;19910;42.652;23.332;2023-03-11T05:02:36;0.47;;;0.40;;
23175;SDS011;19910;42.652;23.332;2023-03-11T05:05:04;0.73;;;0.30;;
23175;SDS011;19910;42.652;23.332;2023-03-11T05:07:32;0.30;;;0.30;;
23175;SDS011;19910;42.652;23.332;2023-03-11T05:09:59;0.20;;;0.20;;
23175;SDS011;19910;42.652;23.332;2023-03-11T05:12:26;0.40;;;0.40;;
23175;SDS011;19910;42.652;23.332;2023-03-11T05:14:52;0.73;;;0.40;;
23175;SDS011;19910;42.652;23.332;2023-03-11T05:17:19;0.30;;;0.30;;
23175;SDS011;19910;42.652;23.332;2023-03-11T05:19:47;0.28;;;0.28;;
23175;SDS011;19910;42.652;23.332;2023-03-11T05:22:15;0.32;;;0.32;;
23175;SDS011;19910;42.652;23.332;2023-03-11T05:24:42;0.30;;;0.30;;
23175;SDS011;19910;42.652;23.332;2023-03-11T05:27:09;0.50;;;0.50;;
23175;SDS011;19910;42.652;23.332;2023-03-11T05:29:35;0.85;;;0.60;;
23175;SDS011;19910;42.652;23.332;2023-03-11T05:32:02;0.65;;;0.45;;
23175;SDS011;19910;42.652;23.332;2023-03-11T05:34:29;0.30;;;0.30;;
23175;SDS011;19910;42.652;23.332;2023-03-11T05:36:57;0.30;;;0.30;;
23175;SDS011;19910;42.652;23.332;2023-03-11T05:39:25;0.30;;;0.30;;
23175;SDS011;19910;42.652;23.332;2023-03-11T05:41:52;0.52;;;0.40;;
23175;SDS011;19910;42.652;23.332;2023-03-11T05:44:20;0.30;;;0.30;;
23175;SDS011;19910;42.652;23.332;2023-03-11T05:46:47;0.30;;;0.30;;
23175;SDS011;19910;42.652;23.332;2023-03-11T05:49:14;0.35;;;0.35;;
23175;SDS011;19910;42.652;23.332;2023-03-11T05:51:40;0.40;;;0.40;;
23175;SDS011;19910;42.652;23.332;2023-03-11T05:54:09;0.30;;;0.30;;
23175;SDS011;19910;42.652;23.332;2023-03-11T05:56:39;0.88;;;0.65;;
23175;SDS011;19910;42.652;23.332;2023-03-11T05:59:06;0.90;;;0.40;;
23175;SDS011;19910;42.652;23.332;2023-03-11T06:01:33;2.63;;;0.43;;
23175;SDS011;19910;42.652;23.332;2023-03-11T06:03:59;0.57;;;0.57;;
23175;SDS011;19910;42.652;23.332;2023-03-11T06:06:27;0.30;;;0.30;;
23175;SDS011;19910;42.652;23.332;2023-03-11T06:08:54;1.40;;;1.05;;
23175;SDS011;19910;42.652;23.332;2023-03-11T06:11:22;0.50;;;0.50;;
23175;SDS011;19910;42.652;23.332;2023-03-11T06:13:50;0.50;;;0.50;;
23175;SDS011;19910;42.652;23.332;2023-03-11T06:16:18;0.43;;;0.43;;
23175;SDS011;19910;42.652;23.332;2023-03-11T06:18:45;0.30;;;0.30;;
23175;SDS011;19910;42.652;23.332;2023-03-11T06:21:15;0.52;;;0.50;;
23175;SDS011;19910;42.652;23.332;2023-03-11T06:23:43;0.30;;;0.30;;
23175;SDS011;19910;42.652;23.332;2023-03-11T06:26:11;0.52;;;0.52;;
23175;SDS011;19910;42.652;23.332;2023-03-11T06:28:42;5.85;;;0.43;;
23175;SDS011;19910;42.652;23.332;2023-03-11T06:31:09;0.75;;;0.50;;
23175;SDS011;19910;42.652;23.332;2023-03-11T06:33:37;0.60;;;0.60;;
23175;SDS011;19910;42.652;23.332;2023-03-11T06:36:04;0.70;;;0.50;;
23175;SDS011;19910;42.652;23.332;2023-03-11T06:38:32;1.52;;;0.70;;
23175;SDS011;19910;42.652;23.332;2023-03-11T06:41:01;0.30;;;0.30;;
23175;SDS011;19910;42.652;23.332;2023-03-11T06:43:30;3.03;;;0.80;;
23175;SDS011;19910;42.652;23.332;2023-03-11T06:45:59;0.75;;;0.50;;
23175;SDS011;19910;42.652;23.332;2023-03-11T06:48:26;0.77;;;0.50;;
23175;SDS011;19910;42.652;23.332;2023-03-11T06:50:54;0.30;;;0.30;;
23175;SDS011;19910;42.652;23.332;2023-03-11T06:53:20;0.55;;;0.50;;
23175;SDS011;19910;42.652;23.332;2023-03-11T06:55:56;2.13;;;0.70;;
23175;SDS011;19910;42.652;23.332;2023-03-11T06:58:24;0.68;;;0.50;;
23175;SDS011;19910;42.652;23.332;2023-03-11T07:00:51;0.60;;;0.60;;
23175;SDS011;19910;42.652;23.332;2023-03-11T07:03:19;5.13;;;2.92;;
23175;SDS011;19910;42.652;23.332;2023-03-11T07:05:49;0.82;;;0.65;;
23175;SDS011;19910;42.652;23.332;2023-03-11T07:08:16;0.73;;;0.60;;
23175;SDS011;19910;42.652;23.332;2023-03-11T07:10:43;0.98;;;0.63;;
23175;SDS011;19910;42.652;23.332;2023-03-11T07:13:10;2.13;;;0.80;;
23175;SDS011;19910;42.652;23.332;2023-03-11T07:15:37;1.00;;;0.68;;
23175;SDS011;19910;42.652;23.332;2023-03-11T07:18:04;0.93;;;0.80;;
23175;SDS011;19910;42.652;23.332;2023-03-11T07:20:32;1.38;;;0.50;;
23175;SDS011;19910;42.652;23.332;2023-03-11T07:22:59;0.50;;;0.50;;
23175;SDS011;19910;42.652;23.332;2023-03-11T07:25:25;0.50;;;0.50;;
23175;SDS011;19910;42.652;23.332;2023-03-11T07:27:52;2.05;;;0.60;;
23175;SDS011;19910;42.652;23.332;2023-03-11T07:30:19;0.90;;;0.50;;
23175;SDS011;19910;42.652;23.332;2023-03-11T07:32:46;0.57;;;0.57;;
23175;SDS011;19910;42.652;23.332;2023-03-11T07:35:13;0.88;;;0.40;;
23175;SDS011;19910;42.652;23.332;2023-03-11T07:37:41;0.98;;;0.65;;
23175;SDS011;19910;42.652;23.332;2023-03-11T07:40:08;0.88;;;0.52;;
23175;SDS011;19910;42.652;23.332;2023-03-11T07:42:35;1.90;;;0.50;;
23175;SDS011;19910;42.652;23.332;2023-03-11T07:45:04;0.47;;;0.47;;
23175;SDS011;19910;42.652;23.332;2023-03-11T07:47:32;0.40;;;0.35;;
23175;SDS011;19910;42.652;23.332;2023-03-11T07:49:59;1.45;;;0.60;;
23175;SDS011;19910;42.652;23.332;2023-03-11T07:52:28;0.50;;;0.50;;
23175;SDS011;19910;42.652;23.332;2023-03-11T07:54:57;0.82;;;0.50;;
23175;SDS011;19910;42.652;23.332;2023-03-11T07:57:24;0.68;;;0.40;;
23175;SDS011;19910;42.652;23.332;2023-03-11T07:59:50;0.40;;;0.40;;
23175;SDS011;19910;42.652;23.332;2023-03-11T08:02:17;0.70;;;0.68;;
23175;SDS011;19910;42.652;23.332;2023-03-11T08:04:44;0.32;;;0.32;;
23175;SDS011;19910;42.652;23.332;2023-03-11T08:07:11;0.50;;;0.50;;
23175;SDS011;19910;42.652;23.332;2023-03-11T08:09:38;5.07;;;0.55;;
23175;SDS011;19910;42.652;23.332;2023-03-11T08:12:07;4.57;;;0.60;;
23175;SDS011;19910;42.652;23.332;2023-03-11T08:14:34;2.13;;;0.80;;
23175;SDS011;19910;42.652;23.332;2023-03-11T08:17:01;3.58;;;0.80;;
23175;SDS011;19910;42.652;23.332;2023-03-11T08:19:29;0.95;;;0.82;;
23175;SDS011;19910;42.652;23.332;2023-03-11T08:21:55;0.80;;;0.70;;
23175;SDS011;19910;42.652;23.332;2023-03-11T08:24:22;0.60;;;0.60;;
23175;SDS011;19910;42.652;23.332;2023-03-11T08:26:49;3.40;;;0.80;;
23175;SDS011;19910;42.652;23.332;2023-03-11T08:29:17;1.58;;;0.93;;
23175;SDS011;19910;42.652;23.332;2023-03-11T08:31:44;1.42;;;0.90;;
23175;SDS011;19910;42.652;23.332;2023-03-11T08:34:10;2.83;;;0.82;;
23175;SDS011;19910;42.652;23.332;2023-03-11T08:36:37;1.00;;;0.77;;
23175;SDS011;19910;42.652;23.332;2023-03-11T08:39:04;0.88;;;0.60;;
23175;SDS011;19910;42.652;23.332;2023-03-11T08:41:31;2.10;;;0.55;;
23175;SDS011;19910;42.652;23.332;2023-03-11T08:43:58;0.80;;;0.60;;
23175;SDS011;19910;42.652;23.332;2023-03-11T08:46:27;0.47;;;0.47;;
23175;SDS011;19910;42.652;23.332;2023-03-11T08:48:55;3.00;;;0.60;;
23175;SDS011;19910;42.652;23.332;2023-03-11T08:51:24;1.25;;;0.70;;
23175;SDS011;19910;42.652;23.332;2023-03-11T08:53:51;3.63;;;0.90;;
23175;SDS011;19910;42.652;23.332;2023-03-11T08:56:18;0.50;;;0.50;;
23175;SDS011;19910;42.652;23.332;2023-03-11T08:58:46;1.55;;;0.80;;
23175;SDS011;19910;42.652;23.332;2023-03-11T09:01:13;2.45;;;1.00;;
23175;SDS011;19910;42.652;23.332;2023-03-11T09:03:41;1.13;;;0.85;;
23175;SDS011;19910;42.652;23.332;2023-03-11T09:06:09;2.03;;;0.73;;
23175;SDS011;19910;42.652;23.332;2023-03-11T09:08:39;1.30;;;0.82;;
23175;SDS011;19910;42.652;23.332;2023-03-11T09:11:06;1.23;;;0.80;;
23175;SDS011;19910;42.652;23.332;2023-03-11T09:13:33;0.88;;;0.70;;
23175;SDS011;19910;42.652;23.332;2023-03-11T09:16:00;1.83;;;0.77;;
23175;SDS011;19910;42.652;23.332;2023-03-11T09:18:29;3.25;;;1.40;;
23175;SDS011;19910;42.652;23.332;2023-03-11T09:20:58;1.52;;;0.95;;
23175;SDS011;19910;42.652;23.332;2023-03-11T09:23:25;1.80;;;0.93;;
23175;SDS011;19910;42.652;23.332;2023-03-11T09:25:52;2.03;;;0.90;;
23175;SDS011;19910;42.652;23.332;2023-03-11T09:28:19;1.50;;;0.90;;
23175;SDS011;19910;42.652;23.332;2023-03-11T09:30:45;1.88;;;1.00;;
23175;SDS011;19910;42.652;23.332;2023-03-11T09:33:12;2.17;;;1.05;;
23175;SDS011;19910;42.652;23.332;2023-03-11T09:35:39;1.33;;;1.10;;
23175;SDS011;19910;42.652;23.332;2023-03-11T09:38:07;1.90;;;1.17;;
23175;SDS011;19910;42.652;23.332;2023-03-11T09:40:38;2.35;;;1.20;;
23175;SDS011;19910;42.652;23.332;2023-03-11T09:43:15;4.00;;;1.35;;
23175;SDS011;19910;42.652;23.332;2023-03-11T09:45:55;3.00;;;1.10;;
23175;SDS011;19910;42.652;23.332;2023-03-11T09:48:30;4.35;;;1.50;;
23175;SDS011;19910;42.652;23.332;2023-03-11T09:51:04;2.60;;;1.35;;
23175;SDS011;19910;42.652;23.332;2023-03-11T09:53:41;2.55;;;1.17;;
23175;SDS011;19910;42.652;23.332;2023-03-11T09:56:09;5.15;;;1.95;;
23175;SDS011;19910;42.652;23.332;2023-03-11T09:58:40;2.15;;;0.93;;
23175;SDS011;19910;42.652;23.332;2023-03-11T10:01:13;1.48;;;1.00;;
23175;SDS011;19910;42.652;23.332;2023-03-11T10:03:43;3.20;;;0.98;;
23175;SDS011;19910;42.652;23.332;2023-03-11T10:06:13;0.90;;;0.82;;
23175;SDS011;19910;42.652;23.332;2023-03-11T10:08:43;1.83;;;0.77;;
23175;SDS011;19910;42.652;23.332;2023-03-11T10:11:23;1.45;;;1.17;;
23175;SDS011;19910;42.652;23.332;2023-03-11T10:14:05;2.47;;;0.80;;
23175;SDS011;19910;42.652;23.332;2023-03-11T10:16:42;4.07;;;1.10;;
23175;SDS011;19910;42.652;23.332;2023-03-11T10:19:20;1.13;;;1.00;;
23175;SDS011;19910;42.652;23.332;2023-03-11T10:21:58;1.63;;;0.77;;
23175;SDS011;19910;42.652;23.332;2023-03-11T10:24:39;1.52;;;0.80;;
23175;SDS011;19910;42.652;23.332;2023-03-11T10:27:16;1.95;;;1.13;;
23175;SDS011;19910;42.652;23.332;2023-03-11T10:29:49;1.30;;;0.80;;
23175;SDS011;19910;42.652;23.332;2023-03-11T10:32:23;1.77;;;0.85;;
23175;SDS011;19910;42.652;23.332;2023-03-11T10:34:56;2.08;;;0.93;;
23175;SDS011;19910;42.652;23.332;2023-03-11T10:37:30;2.35;;;0.85;;
23175;SDS011;19910;42.652;23.332;2023-03-11T10:40:04;1.10;;;0.80;;
23175;SDS011;19910;42.652;23.332;2023-03-11T10:42:40;1.70;;;0.80;;
23175;SDS011;19910;42.652;23.332;2023-03-11T10:45:10;1.83;;;0.68;;
23175;SDS011;19910;42.652;23.332;2023-03-11T10:47:39;1.60;;;0.88;;
23175;SDS011;19910;42.652;23.332;2023-03-11T10:50:06;2.15;;;0.73;;
23175;SDS011;19910;42.652;23.332;2023-03-11T10:53:03;1.17;;;0.70;;
23175;SDS011;19910;42.652;23.332;2023-03-11T10:55:34;1.95;;;0.95;;
23175;SDS011;19910;42.652;23.332;2023-03-11T10:58:12;2.40;;;1.05;;
23175;SDS011;19910;42.652;23.332;2023-03-11T11:00:40;0.60;;;0.60;;
23175;SDS011;19910;42.652;23.332;2023-03-11T11:03:11;1.73;;;0.77;;
23175;SDS011;19910;42.652;23.332;2023-03-11T11:05:44;0.80;;;0.68;;
23175;SDS011;19910;42.652;23.332;2023-03-11T11:08:23;1.67;;;0.70;;
23175;SDS011;19910;42.652;23.332;2023-03-11T11:10:52;3.28;;;1.08;;
23175;SDS011;19910;42.652;23.332;2023-03-11T11:13:20;1.95;;;1.00;;
23175;SDS011;19910;42.652;23.332;2023-03-11T11:15:52;2.58;;;1.05;;
23175;SDS011;19910;42.652;23.332;2023-03-11T11:18:22;3.53;;;1.13;;
23175;SDS011;19910;42.652;23.332;2023-03-11T11:20:58;1.63;;;0.90;;
23175;SDS011;19910;42.652;23.332;2023-03-11T11:23:30;2.42;;;0.95;;
23175;SDS011;19910;42.652;23.332;2023-03-11T11:26:00;1.13;;;0.80;;
23175;SDS011;19910;42.652;23.332;2023-03-11T11:28:30;3.10;;;1.20;;
23175;SDS011;19910;42.652;23.332;2023-03-11T11:30:58;1.90;;;1.08;;
23175;SDS011;19910;42.652;23.332;2023-03-11T11:33:28;5.10;;;1.50;;
23175;SDS011;19910;42.652;23.332;2023-03-11T11:35:56;2.17;;;1.30;;
23175;SDS011;19910;42.652;23.332;2023-03-11T11:38:28;3.42;;;1.13;;
23175;SDS011;19910;42.652;23.332;2023-03-11T11:40:57;3.90;;;1.10;;
23175;SDS011;19910;42.652;23.332;2023-03-11T11:43:31;1.85;;;1.10;;
23175;SDS011;19910;42.652;23.332;2023-03-11T11:46:15;3.60;;;1.17;;
23175;SDS011;19910;42.652;23.332;2023-03-11T11:48:46;4.13;;;1.30;;
23175;SDS011;19910;42.652;23.332;2023-03-11T11:51:21;1.60;;;1.20;;
23175;SDS011;19910;42.652;23.332;2023-03-11T11:53:54;5.95;;;1.65;;
23175;SDS011;19910;42.652;23.332;2023-03-11T11:56:26;3.00;;;1.23;;
23175;SDS011;19910;42.652;23.332;2023-03-11T11:58:53;1.98;;;1.00;;
23175;SDS011;19910;42.652;23.332;2023-03-11T12:01:23;2.17;;;1.13;;
23175;SDS011;19910;42.652;23.332;2023-03-11T12:04:00;2.25;;;1.05;;
23175;SDS011;19910;42.652;23.332;2023-03-11T12:06:46;3.22;;;1.17;;
23175;SDS011;19910;42.652;23.332;2023-03-11T12:09:21;2.08;;;1.10;;
23175;SDS011;19910;42.652;23.332;2023-03-11T12:11:56;1.02;;;0.90;;
23175;SDS011;19910;42.652;23.332;2023-03-11T12:14:29;3.17;;;1.20;;
23175;SDS011;19910;42.652;23.332;2023-03-11T12:17:02;3.33;;;1.05;;
23175;SDS011;19910;42.652;23.332;2023-03-11T12:19:33;2.97;;;1.10;;
23175;SDS011;19910;42.652;23.332;2023-03-11T12:25:07;1.80;;;0.90;;
23175;SDS011;19910;42.652;23.332;2023-03-11T12:27:48;2.30;;;1.40;;
23175;SDS011;19910;42.652;23.332;2023-03-11T12:30:21;2.13;;;1.13;;
23175;SDS011;19910;42.652;23.332;2023-03-11T12:32:53;2.10;;;1.30;;
23175;SDS011;19910;42.652;23.332;2023-03-11T12:35:23;3.85;;;1.30;;
23175;SDS011;19910;42.652;23.332;2023-03-11T12:37:56;1.50;;;1.00;;
23175;SDS011;19910;42.652;23.332;2023-03-11T12:40:49;2.38;;;1.17;;
23175;SDS011;19910;42.652;23.332;2023-03-11T12:49:26;2.35;;;1.00;;
23175;SDS011;19910;42.652;23.332;2023-03-11T12:52:02;1.23;;;0.93;;
23175;SDS011;19910;42.652;23.332;2023-03-11T12:54:31;1.20;;;0.70;;
23175;SDS011;19910;42.652;23.332;2023-03-11T12:56:59;2.85;;;0.98;;
23175;SDS011;19910;42.652;23.332;2023-03-11T12:59:40;0.93;;;0.80;;
23175;SDS011;19910;42.652;23.332;2023-03-11T13:02:21;1.92;;;0.80;;
23175;SDS011;19910;42.652;23.332;2023-03-11T13:05:04;1.95;;;0.90;;
23175;SDS011;19910;42.652;23.332;2023-03-11T13:07:45;1.63;;;1.17;;
23175;SDS011;19910;42.652;23.332;2023-03-11T13:10:18;2.28;;;0.80;;
23175;SDS011;19910;42.652;23.332;2023-03-11T13:12:59;3.83;;;1.15;;
23175;SDS011;19910;42.652;23.332;2023-03-11T13:15:29;1.63;;;1.48;;
23175;SDS011;19910;42.652;23.332;2023-03-11T13:18:13;2.75;;;1.10;;
23175;SDS011;19910;42.652;23.332;2023-03-11T13:20:52;2.75;;;1.27;;
23175;SDS011;19910;42.652;23.332;2023-03-11T13:23:22;3.00;;;1.15;;
23175;SDS011;19910;42.652;23.332;2023-03-11T13:26:26;3.25;;;1.40;;
23175;SDS011;19910;42.652;23.332;2023-03-11T13:29:10;5.72;;;1.40;;
23175;SDS011;19910;42.652;23.332;2023-03-11T13:31:57;3.63;;;1.58;;
23175;SDS011;19910;42.652;23.332;2023-03-11T13:34:34;0.75;;;0.70;;
23175;SDS011;19910;42.652;23.332;2023-03-11T13:37:11;2.35;;;0.90;;
23175;SDS011;19910;42.652;23.332;2023-03-11T13:39:51;1.83;;;0.88;;
23175;SDS011;19910;42.652;23.332;2023-03-11T13:42:26;0.40;;;0.40;;
23175;SDS011;19910;42.652;23.332;2023-03-11T13:44:58;0.50;;;0.50;;
23175;SDS011;19910;42.652;23.332;2023-03-11T13:47:27;0.93;;;0.63;;
23175;SDS011;19910;42.652;23.332;2023-03-11T13:49:58;1.40;;;0.57;;
23175;SDS011;19910;42.652;23.332;2023-03-11T13:52:30;1.38;;;0.75;;
23175;SDS011;19910;42.652;23.332;2023-03-11T13:55:00;1.55;;;0.68;;
23175;SDS011;19910;42.652;23.332;2023-03-11T13:57:30;0.65;;;0.65;;
23175;SDS011;19910;42.652;23.332;2023-03-11T14:00:02;0.70;;;0.60;;
23175;SDS011;19910;42.652;23.332;2023-03-11T14:02:43;0.65;;;0.65;;
23175;SDS011;19910;42.652;23.332;2023-03-11T14:05:12;0.65;;;0.65;;
23175;SDS011;19910;42.652;23.332;2023-03-11T14:07:41;1.92;;;1.15;;
23175;SDS011;19910;42.652;23.332;2023-03-11T14:10:14;3.50;;;1.38;;
23175;SDS011;19910;42.652;23.332;2023-03-11T14:12:42;3.30;;;1.55;;
23175;SDS011;19910;42.652;23.332;2023-03-11T14:15:11;2.92;;;1.48;;
23175;SDS011;19910;42.652;23.332;2023-03-11T14:17:42;1.25;;;1.15;;
23175;SDS011;19910;42.652;23.332;2023-03-11T14:20:11;2.17;;;1.27;;
23175;SDS011;19910;42.652;23.332;2023-03-11T14:22:42;3.17;;;1.00;;
23175;SDS011;19910;42.652;23.332;2023-03-11T14:25:13;4.78;;;1.42;;
23175;SDS011;19910;42.652;23.332;2023-03-11T14:27:45;4.25;;;1.02;;
23175;SDS011;19910;42.652;23.332;2023-03-11T14:30:17;12.68;;;4.20;;
23175;SDS011;19910;42.652;23.332;2023-03-11T14:32:55;3.67;;;2.00;;
23175;SDS011;19910;42.652;23.332;2023-03-11T14:35:24;2.88;;;1.50;;
23175;SDS011;19910;42.652;23.332;2023-03-11T14:37:51;1.38;;;0.98;;
23175;SDS011;19910;42.652;23.332;2023-03-11T14:40:21;1.50;;;1.15;;
23175;SDS011;19910;42.652;23.332;2023-03-11T14:42:49;0.88;;;0.70;;
23175;SDS011;19910;42.652;23.332;2023-03-11T14:45:19;1.95;;;0.95;;
23175;SDS011;19910;42.652;23.332;2023-03-11T14:47:49;1.85;;;0.95;;
23175;SDS011;19910;42.652;23.332;2023-03-11T14:52:51;0.60;;;0.55;;
23175;SDS011;19910;42.652;23.332;2023-03-11T14:55:24;2.08;;;0.75;;
23175;SDS011;19910;42.652;23.332;2023-03-11T14:57:55;1.83;;;1.30;;
23175;SDS011;19910;42.652;23.332;2023-03-11T15:00:25;3.10;;;1.13;;